Time;durP1;ratioP1;P1;durP2;ratioP2;P2;SDS_P1;SDS_P2;PMS_P1;PMS_P2;Temp;Humidity;BMP_temperature;BMP_pressure;BME280_temperature;BME280_humidity;BME280_pressure;Samples;Min_cycle;Max_cycle;Signal;HPM_P1;HPM_P2
2021/07/25 00:00:05;;;;;;;12.97;8.87;;;17.20;99.90;;;;;;5078453;28;20329;-65
2021/07/25 00:02:35;;;;;;;11.47;8.30;;;17.30;99.90;;;;;;5077683;28;20213;-65
2021/07/25 00:05:05;;;;;;;9.53;8.10;;;17.30;99.90;;;;;;5077807;28;20192;-65
2021/07/25 00:07:35;;;;;;;14.20;8.63;;;17.30;99.90;;;;;;5076297;28;20187;-65
2021/07/25 00:10:04;;;;;;;12.63;8.90;;;17.30;99.90;;;;;;5079182;28;20490;-65
2021/07/25 00:12:32;;;;;;;15.90;8.40;;;17.30;99.90;;;;;;5071850;28;20193;-65
2021/07/25 00:15:02;;;;;;;12.17;8.27;;;17.30;99.90;;;;;;5078396;28;20192;-65
2021/07/25 00:17:30;;;;;;;13.70;8.77;;;17.30;99.90;;;;;;5095650;28;20410;-65
2021/07/25 00:19:59;;;;;;;11.37;8.47;;;17.40;99.90;;;;;;5076794;28;20187;-65
2021/07/25 00:22:27;;;;;;;9.93;7.90;;;17.50;99.90;;;;;;5078857;28;20190;-65
2021/07/25 00:25:07;;;;;;;10.80;8.43;;;17.50;99.90;;;;;;5077885;28;20206;-65
2021/07/25 00:27:39;;;;;;;11.23;8.77;;;17.40;99.90;;;;;;5076869;28;20224;-65
2021/07/25 00:30:09;;;;;;;11.27;8.40;;;17.30;99.90;;;;;;5078240;28;20188;-65
2021/07/25 00:32:37;;;;;;;9.20;8.17;;;17.20;99.90;;;;;;5074976;28;20453;-65
2021/07/25 00:35:06;;;;;;;15.60;8.47;;;17.20;99.90;;;;;;5077970;28;20208;-65
2021/07/25 00:37:35;;;;;;;9.93;7.80;;;17.20;99.90;;;;;;5075632;28;20307;-65
2021/07/25 00:40:07;;;;;;;11.70;8.27;;;17.20;99.90;;;;;;5074628;28;20272;-65
2021/07/25 00:42:39;;;;;;;10.33;8.83;;;17.30;99.90;;;;;;5075728;28;20186;-65
2021/07/25 00:45:08;;;;;;;11.83;8.33;;;17.20;99.90;;;;;;5077532;28;20185;-65
2021/07/25 00:47:39;;;;;;;11.70;8.60;;;17.20;99.90;;;;;;5075076;28;20263;-65
2021/07/25 00:50:09;;;;;;;10.43;8.10;;;17.10;99.90;;;;;;5079005;28;20269;-65
2021/07/25 00:52:38;;;;;;;11.37;8.17;;;17.10;99.90;;;;;;5076051;28;20186;-65
2021/07/25 00:55:09;;;;;;;13.83;8.70;;;17.10;99.90;;;;;;5072894;28;20422;-65
2021/07/25 00:57:37;;;;;;;16.17;9.20;;;17.00;99.90;;;;;;5077326;28;20194;-65
2021/07/25 01:00:08;;;;;;;8.97;7.73;;;17.00;99.90;;;;;;5077642;28;20185;-65
2021/07/25 01:02:46;;;;;;;9.03;7.97;;;17.00;99.90;;;;;;5074088;28;20201;-65
2021/07/25 01:05:24;;;;;;;10.43;8.17;;;16.90;99.90;;;;;;5078330;28;20180;-65
2021/07/25 01:08:00;;;;;;;14.00;8.83;;;16.90;99.90;;;;;;5075854;28;20385;-66
2021/07/25 01:10:31;;;;;;;15.33;7.67;;;16.90;99.90;;;;;;5073752;28;20185;-65
2021/07/25 01:13:04;;;;;;;11.80;7.80;;;16.90;99.90;;;;;;5075783;28;20396;-65
2021/07/25 01:15:33;;;;;;;17.90;9.00;;;16.90;99.90;;;;;;5075820;28;20200;-65
2021/07/25 01:18:02;;;;;;;11.77;7.63;;;16.90;99.90;;;;;;5078102;28;20185;-65
2021/07/25 01:20:31;;;;;;;14.17;8.70;;;16.90;99.90;;;;;;5077536;28;20207;-65
2021/07/25 01:23:01;;;;;;;8.27;7.27;;;16.90;99.90;;;;;;5078256;28;20302;-65
2021/07/25 01:25:30;;;;;;;11.67;8.00;;;16.90;99.90;;;;;;5076621;28;20182;-65
2021/07/25 01:28:02;;;;;;;8.37;7.47;;;16.90;99.90;;;;;;5078811;28;20185;-65
2021/07/25 01:30:32;;;;;;;13.73;8.50;;;16.90;99.90;;;;;;5077364;28;20211;-65
2021/07/25 01:33:09;;;;;;;13.83;9.10;;;16.80;99.90;;;;;;5075146;28;20307;-65
2021/07/25 01:35:41;;;;;;;13.37;8.50;;;16.80;99.90;;;;;;5076350;28;20252;-65
2021/07/25 01:38:09;;;;;;;11.37;8.23;;;16.80;99.90;;;;;;5081559;28;20180;-65
2021/07/25 01:40:38;;;;;;;8.33;7.20;;;16.70;99.90;;;;;;5079565;28;20179;-65
2021/07/25 01:43:09;;;;;;;10.87;8.03;;;16.70;99.90;;;;;;5079986;28;20188;-65
2021/07/25 01:45:38;;;;;;;13.23;8.63;;;16.60;99.90;;;;;;5079775;28;20180;-65
2021/07/25 01:48:07;;;;;;;12.93;8.43;;;16.60;99.90;;;;;;5079196;28;20179;-65
2021/07/25 01:50:35;;;;;;;8.97;8.00;;;16.70;99.90;;;;;;5080264;28;20223;-65
2021/07/25 01:53:04;;;;;;;13.77;8.83;;;16.70;99.90;;;;;;5080035;28;20201;-65
2021/07/25 01:55:33;;;;;;;10.87;8.47;;;16.70;99.90;;;;;;5079984;28;20207;-65
2021/07/25 01:58:01;;;;;;;15.53;9.23;;;16.70;99.90;;;;;;5079843;28;20220;-65
2021/07/25 02:00:32;;;;;;;11.67;9.27;;;16.80;99.90;;;;;;5077282;28;20201;-65
2021/07/25 02:03:00;;;;;;;12.07;8.70;;;16.80;99.90;;;;;;5079875;28;20201;-65
2021/07/25 02:05:28;;;;;;;13.30;8.50;;;16.80;99.90;;;;;;5080254;28;20212;-65
2021/07/25 02:07:57;;;;;;;20.13;9.30;;;16.80;99.90;;;;;;5081400;28;20191;-65
2021/07/25 02:10:27;;;;;;;11.80;9.00;;;16.80;99.90;;;;;;5076366;28;20249;-65
2021/07/25 02:12:55;;;;;;;14.10;8.93;;;16.80;99.90;;;;;;5079498;28;20188;-65
2021/07/25 02:15:26;;;;;;;12.07;9.43;;;16.80;99.90;;;;;;5080374;28;20199;-65
2021/07/25 02:17:54;;;;;;;16.40;9.70;;;16.90;99.90;;;;;;5080760;28;20427;-65
2021/07/25 02:20:22;;;;;;;11.97;8.73;;;16.90;99.90;;;;;;5072520;28;20438;-65
2021/07/25 02:22:50;;;;;;;17.80;9.03;;;16.90;99.90;;;;;;5079378;28;20180;-65
2021/07/25 02:25:19;;;;;;;15.73;9.37;;;16.90;99.90;;;;;;5079832;28;20204;-65
2021/07/25 02:27:48;;;;;;;13.90;9.30;;;17.00;99.90;;;;;;5078544;28;20431;-65
2021/07/25 02:30:16;;;;;;;12.73;8.83;;;17.00;99.90;;;;;;5080714;28;20184;-66
2021/07/25 02:32:45;;;;;;;11.73;8.50;;;17.00;99.90;;;;;;5080311;28;20184;-65
2021/07/25 02:35:13;;;;;;;12.60;9.30;;;17.00;99.90;;;;;;5078107;28;20184;-65
2021/07/25 02:37:41;;;;;;;10.37;8.90;;;17.00;99.90;;;;;;5081476;28;20190;-65
2021/07/25 02:40:11;;;;;;;14.07;9.37;;;16.90;99.90;;;;;;5080510;28;20201;-65
2021/07/25 02:42:39;;;;;;;14.10;8.90;;;16.90;99.90;;;;;;5087824;28;20311;-65
2021/07/25 02:45:10;;;;;;;14.70;8.90;;;16.90;99.90;;;;;;5077019;28;20250;-65
2021/07/25 02:47:38;;;;;;;11.27;9.10;;;16.80;99.90;;;;;;5081181;28;20178;-65
2021/07/25 02:50:07;;;;;;;13.83;9.57;;;16.90;99.90;;;;;;5078302;28;20247;-65
2021/07/25 02:52:36;;;;;;;13.90;8.50;;;16.80;99.90;;;;;;5080480;28;20180;-65
2021/07/25 02:55:05;;;;;;;13.13;9.50;;;16.80;99.90;;;;;;5077508;28;20240;-65
2021/07/25 02:57:34;;;;;;;10.63;8.47;;;16.70;99.90;;;;;;5080986;28;20427;-65
2021/07/25 03:00:02;;;;;;;13.07;8.37;;;16.70;99.90;;;;;;5080302;28;20257;-65
2021/07/25 03:02:31;;;;;;;13.90;8.83;;;16.70;99.90;;;;;;5078816;28;20180;-65
2021/07/25 03:05:00;;;;;;;15.40;9.27;;;16.70;99.90;;;;;;5077183;28;20214;-65
2021/07/25 03:07:28;;;;;;;16.80;9.17;;;16.70;99.90;;;;;;5077231;28;20176;-65
2021/07/25 03:09:57;;;;;;;10.87;8.83;;;16.70;99.90;;;;;;5079563;28;20195;-65
2021/07/25 03:12:25;;;;;;;15.60;9.17;;;16.60;99.90;;;;;;5079321;28;20210;-65
2021/07/25 03:14:54;;;;;;;9.47;8.10;;;16.60;99.90;;;;;;5077647;28;20222;-65
2021/07/25 03:17:22;;;;;;;11.57;8.27;;;16.60;99.90;;;;;;5078954;28;20184;-65
2021/07/25 03:19:51;;;;;;;18.57;9.27;;;16.60;99.90;;;;;;5080416;28;20177;-65
2021/07/25 03:22:21;;;;;;;18.83;9.27;;;16.50;99.90;;;;;;5077994;28;20196;-65
2021/07/25 03:24:50;;;;;;;12.57;8.73;;;16.50;99.90;;;;;;5073964;28;20452;-65
2021/07/25 03:27:18;;;;;;;17.23;8.90;;;16.50;99.90;;;;;;5076373;28;20204;-65
2021/07/25 03:29:46;;;;;;;14.93;8.67;;;16.50;99.90;;;;;;5075677;28;20209;-65
2021/07/25 03:32:18;;;;;;;14.27;9.03;;;16.50;99.90;;;;;;5078275;28;20430;-65
2021/07/25 03:34:48;;;;;;;12.10;8.67;;;16.40;99.90;;;;;;5078995;28;20184;-65
2021/07/25 03:37:18;;;;;;;11.17;8.43;;;16.40;99.90;;;;;;5079529;28;20230;-65
2021/07/25 03:39:49;;;;;;;13.17;8.60;;;16.40;99.90;;;;;;5079310;28;20196;-65
2021/07/25 03:42:18;;;;;;;19.83;8.87;;;16.40;99.90;;;;;;5078998;28;20413;-65
2021/07/25 03:44:47;;;;;;;12.63;9.03;;;16.40;99.90;;;;;;5077835;28;20280;-65
2021/07/25 03:47:16;;;;;;;17.43;8.50;;;16.40;99.90;;;;;;5080340;28;20408;-65
2021/07/25 03:49:45;;;;;;;15.07;8.33;;;16.40;99.90;;;;;;5078113;28;20177;-65
2021/07/25 03:52:13;;;;;;;14.97;8.93;;;16.30;99.90;;;;;;5080524;28;20340;-65
2021/07/25 03:54:43;;;;;;;10.83;8.47;;;16.30;99.90;;;;;;5075326;28;20184;-65
2021/07/25 03:57:12;;;;;;;12.60;9.33;;;16.20;99.90;;;;;;5079519;28;20189;-65
2021/07/25 03:59:40;;;;;;;18.23;9.53;;;16.20;99.90;;;;;;5076992;28;20207;-65
2021/07/25 04:02:08;;;;;;;16.97;9.40;;;16.20;99.90;;;;;;5076627;28;20184;-65
2021/07/25 04:04:37;;;;;;;16.13;9.33;;;16.20;99.90;;;;;;5077294;28;20394;-65
2021/07/25 04:07:05;;;;;;;13.13;9.23;;;16.10;99.90;;;;;;5077690;28;20243;-65
2021/07/25 04:09:33;;;;;;;15.73;9.07;;;16.10;99.90;;;;;;5077379;28;20172;-65
2021/07/25 04:12:03;;;;;;;12.10;8.27;;;16.10;99.90;;;;;;5076650;28;20191;-65
2021/07/25 04:14:32;;;;;;;12.93;8.93;;;16.10;99.90;;;;;;5067870;28;20180;-65
2021/07/25 04:17:02;;;;;;;14.90;9.23;;;16.10;99.90;;;;;;5059192;28;20180;-65
2021/07/25 04:19:31;;;;;;;16.27;9.03;;;16.10;99.90;;;;;;5060577;28;20200;-65
2021/07/25 04:22:06;;;;;;;10.43;8.07;;;16.10;99.90;;;;;;5076441;28;20206;-65
2021/07/25 04:24:38;;;;;;;19.53;8.40;;;16.10;99.90;;;;;;5059361;28;20176;-65
2021/07/25 04:27:49;;;;;;;13.70;8.67;;;16.10;99.90;;;;;;5070738;28;20373;-65
2021/07/25 04:31:08;;;;;;;16.03;8.80;;;16.10;99.90;;;;;;5076970;28;20407;-65
2021/07/25 04:34:28;;;;;;;12.83;8.20;;;16.10;99.90;;;;;;5079223;28;20321;-65
2021/07/25 04:37:49;;;;;;;15.50;8.83;;;16.10;99.90;;;;;;5076179;28;20182;-65
2021/07/25 04:41:10;;;;;;;11.50;8.40;;;16.20;99.90;;;;;;5079275;28;21606;-65
2021/07/25 04:44:38;;;;;;;13.27;8.10;;;16.30;99.90;;;;;;5078851;28;20314;-65
2021/07/25 04:48:05;;;;;;;16.10;8.67;;;16.30;99.90;;;;;;5077560;28;20191;-65
2021/07/25 04:51:24;;;;;;;13.43;8.07;;;16.30;99.90;;;;;;5077517;28;20182;-65
2021/07/25 04:54:44;;;;;;;14.67;7.83;;;16.40;99.90;;;;;;5077538;28;20195;-65
2021/07/25 04:58:05;;;;;;;12.07;7.93;;;16.40;99.90;;;;;;5075830;28;20206;-65
2021/07/25 05:01:28;;;;;;;10.40;7.50;;;16.50;99.90;;;;;;5077866;28;20207;-65
2021/07/25 05:04:49;;;;;;;16.27;8.27;;;16.50;99.90;;;;;;5077186;28;20254;-65
2021/07/25 05:08:09;;;;;;;8.63;6.70;;;16.60;99.90;;;;;;5078386;28;20188;-65
2021/07/25 05:11:42;;;;;;;9.37;7.20;;;16.60;99.90;;;;;;5079796;28;20237;-65
2021/07/25 05:15:05;;;;;;;9.13;7.57;;;16.60;99.90;;;;;;5081221;28;20187;-65
2021/07/25 05:18:35;;;;;;;14.37;6.93;;;16.80;99.90;;;;;;5079293;28;20184;-65
2021/07/25 05:22:02;;;;;;;12.07;7.13;;;16.90;99.90;;;;;;5078681;28;20203;-65
2021/07/25 05:25:24;;;;;;;13.10;7.33;;;17.20;99.90;;;;;;5081561;28;20202;-65
2021/07/25 05:28:44;;;;;;;10.40;6.80;;;17.50;99.90;;;;;;5078036;28;20189;-65
2021/07/25 05:32:02;;;;;;;11.20;7.07;;;17.90;99.90;;;;;;5080165;28;20187;-65
2021/07/25 05:35:24;;;;;;;11.87;6.40;;;18.30;99.90;;;;;;5082099;28;20395;-65
2021/07/25 05:38:43;;;;;;;9.57;6.30;;;18.70;99.90;;;;;;5078592;28;20231;-65
2021/07/25 05:42:01;;;;;;;12.43;6.23;;;19.10;99.90;;;;;;5080604;28;20191;-65
2021/07/25 05:45:20;;;;;;;10.80;5.50;;;19.40;99.90;;;;;;5081388;28;20204;-65
2021/07/25 05:48:39;;;;;;;8.13;5.27;;;19.50;99.90;;;;;;5079521;28;20187;-65
2021/07/25 05:51:59;;;;;;;7.07;5.10;;;19.60;99.90;;;;;;5081353;28;20268;-65
2021/07/25 05:55:19;;;;;;;6.87;4.73;;;19.80;99.90;;;;;;5081703;28;20191;-65
2021/07/25 05:58:38;;;;;;;9.10;5.50;;;20.00;99.90;;;;;;5080731;28;20272;-65
2021/07/25 06:01:56;;;;;;;6.90;5.10;;;20.10;99.90;;;;;;5078322;28;20195;-65
2021/07/25 06:05:16;;;;;;;7.47;5.00;;;20.20;99.90;;;;;;5081852;28;20199;-65
2021/07/25 06:08:37;;;;;;;6.13;4.90;;;20.20;99.90;;;;;;5078626;28;20229;-65
2021/07/25 06:11:56;;;;;;;9.00;4.80;;;20.30;99.90;;;;;;5080396;28;20387;-65
2021/07/25 06:15:15;;;;;;;7.43;4.70;;;20.40;99.90;;;;;;5077920;28;20179;-65
2021/07/25 06:18:34;;;;;;;6.87;4.63;;;20.40;99.90;;;;;;5079365;28;20585;-65
2021/07/25 06:21:53;;;;;;;11.53;4.90;;;20.30;99.90;;;;;;5078178;28;20207;-65
2021/07/25 06:25:18;;;;;;;6.03;4.30;;;20.10;99.90;;;;;;5079258;28;20278;-65
2021/07/25 06:28:37;;;;;;;7.63;5.13;;;19.90;99.90;;;;;;5077715;28;20207;-65
2021/07/25 06:31:55;;;;;;;6.00;4.83;;;19.80;99.90;;;;;;5076299;28;20200;-65
2021/07/25 06:35:14;;;;;;;6.50;4.40;;;19.80;99.90;;;;;;5079791;28;20306;-65
2021/07/25 06:38:33;;;;;;;8.93;4.80;;;19.90;99.90;;;;;;5077127;28;20246;-65
2021/07/25 06:41:53;;;;;;;11.20;4.80;;;19.90;99.90;;;;;;5079530;28;20386;-64
2021/07/25 06:45:13;;;;;;;6.83;4.63;;;19.90;99.90;;;;;;5078632;28;20183;-65
2021/07/25 06:48:33;;;;;;;10.00;4.63;;;20.00;99.90;;;;;;5080084;28;20190;-65
2021/07/25 06:51:52;;;;;;;4.83;4.33;;;20.00;99.90;;;;;;5079041;28;20411;-65
2021/07/25 06:55:11;;;;;;;6.17;4.20;;;20.30;99.90;;;;;;5079961;28;20250;-65
2021/07/25 06:58:30;;;;;;;7.47;4.50;;;20.30;99.90;;;;;;5079052;28;20203;-65
2021/07/25 07:01:49;;;;;;;5.10;4.37;;;20.40;99.90;;;;;;5079567;28;20249;-65
2021/07/25 07:05:10;;;;;;;6.73;4.37;;;20.50;99.90;;;;;;5078789;28;20284;-65
2021/07/25 07:08:28;;;;;;;4.90;4.37;;;20.70;99.90;;;;;;5078619;28;20270;-65
2021/07/25 07:11:46;;;;;;;5.93;4.23;;;20.90;99.90;;;;;;5076864;28;20379;-65
2021/07/25 07:15:09;;;;;;;6.20;4.40;;;21.10;99.90;;;;;;5075510;28;20590;-65
2021/07/25 07:18:29;;;;;;;5.00;3.90;;;21.40;99.90;;;;;;5071396;28;20251;-65
2021/07/25 07:21:48;;;;;;;6.80;3.87;;;21.80;99.90;;;;;;5073139;28;20234;-65
2021/07/25 07:25:08;;;;;;;8.77;4.47;;;22.20;99.90;;;;;;5076688;28;20196;-65
2021/07/25 07:28:26;;;;;;;6.67;3.90;;;22.30;99.90;;;;;;5079398;28;20184;-65
2021/07/25 07:31:47;;;;;;;4.30;3.90;;;21.90;99.90;;;;;;5077381;28;20187;-65
2021/07/25 07:35:05;;;;;;;4.00;3.67;;;22.00;99.90;;;;;;5074971;28;20231;-65
2021/07/25 07:38:24;;;;;;;6.87;3.50;;;22.00;99.90;;;;;;5080095;28;20192;-66
2021/07/25 07:41:43;;;;;;;6.47;3.80;;;22.10;99.90;;;;;;5078494;28;20236;-65
2021/07/25 07:45:02;;;;;;;4.33;3.53;;;22.20;99.90;;;;;;5077519;28;20432;-65
2021/07/25 07:48:25;;;;;;;8.87;3.87;;;22.50;99.90;;;;;;5079947;28;20290;-65
2021/07/25 07:51:43;;;;;;;6.00;3.77;;;22.70;99.90;;;;;;5079380;28;20310;-65
2021/07/25 07:55:02;;;;;;;6.83;3.83;;;22.70;99.90;;;;;;5073804;28;20189;-66
2021/07/25 07:58:21;;;;;;;5.60;3.77;;;22.60;99.90;;;;;;5078494;28;20480;-65
2021/07/25 08:01:40;;;;;;;6.23;3.83;;;22.70;99.90;;;;;;5078453;28;20203;-65
2021/07/25 08:05:02;;;;;;;5.30;3.40;;;22.90;99.90;;;;;;5078418;28;20262;-66
2021/07/25 08:08:20;;;;;;;9.60;3.70;;;22.90;99.90;;;;;;5076588;28;20209;-65
2021/07/25 08:11:43;;;;;;;5.80;3.97;;;22.80;99.90;;;;;;5076896;28;20230;-65
2021/07/25 08:15:01;;;;;;;7.07;4.50;;;22.80;99.90;;;;;;5076505;28;20469;-65
2021/07/25 08:18:20;;;;;;;8.87;4.57;;;22.60;99.90;;;;;;5078521;28;20192;-66
2021/07/25 08:21:40;;;;;;;5.27;4.43;;;22.60;99.90;;;;;;5076260;28;20429;-66
2021/07/25 08:24:59;;;;;;;8.40;4.97;;;22.60;99.90;;;;;;5080218;28;20183;-66
2021/07/25 08:28:18;;;;;;;6.00;5.00;;;22.50;99.90;;;;;;5075520;28;20435;-65
2021/07/25 08:31:37;;;;;;;8.63;6.03;;;22.30;99.90;;;;;;5076714;28;20197;-65
2021/07/25 08:34:57;;;;;;;7.67;5.13;;;22.50;99.90;;;;;;5074369;28;20351;-66
2021/07/25 08:38:18;;;;;;;7.27;5.13;;;22.80;99.90;;;;;;5077082;28;20346;-66
2021/07/25 08:41:55;;;;;;;9.33;5.43;;;23.40;99.90;;;;;;5076025;28;20211;-66
2021/07/25 08:45:14;;;;;;;7.13;4.83;;;23.90;99.90;;;;;;5076740;28;20224;-65
2021/07/25 08:48:39;;;;;;;11.00;4.60;;;23.60;99.90;;;;;;5080138;28;20203;-65
2021/07/25 08:52:01;;;;;;;4.30;3.90;;;23.30;99.90;;;;;;5075239;28;20469;-65
2021/07/25 08:55:22;;;;;;;6.87;3.80;;;23.10;99.90;;;;;;5082662;28;20464;-65
2021/07/25 08:58:45;;;;;;;6.40;4.07;;;22.80;99.90;;;;;;5077469;28;20375;-66
2021/07/25 09:02:07;;;;;;;4.00;3.40;;;22.70;99.90;;;;;;5077456;28;20183;-66
2021/07/25 09:05:26;;;;;;;3.37;3.17;;;22.80;99.90;;;;;;5078860;28;20178;-65
2021/07/25 09:08:45;;;;;;;5.10;3.10;;;22.80;99.90;;;;;;5079792;28;20899;-66
2021/07/25 09:12:07;;;;;;;3.50;3.30;;;23.00;99.90;;;;;;5079503;28;20491;-66
2021/07/25 09:15:29;;;;;;;5.97;3.57;;;23.40;99.90;;;;;;5076495;28;20235;-66
2021/07/25 09:18:48;;;;;;;5.73;3.50;;;23.90;99.90;;;;;;5080281;28;20187;-66
2021/07/25 09:22:15;;;;;;;5.47;3.13;;;24.50;99.90;;;;;;5080691;28;20186;-66
2021/07/25 09:25:37;;;;;;;6.33;3.80;;;25.70;99.90;;;;;;5082706;28;20189;-66
2021/07/25 09:29:18;;;;;;;7.13;4.17;;;25.60;99.90;;;;;;5080067;28;20285;-66
2021/07/25 09:32:37;;;;;;;7.03;5.53;;;25.50;99.90;;;;;;5081090;28;20195;-66
2021/07/25 09:36:11;;;;;;;8.68;6.15;;;26.10;99.90;;;;;;5078489;28;20317;-66
2021/07/25 09:39:37;;;;;;;6.22;5.18;;;27.70;99.90;;;;;;5078971;28;20270;-66
2021/07/25 09:43:09;;;;;;;6.25;4.95;;;27.50;99.90;;;;;;5080315;28;20288;-66
2021/07/25 09:46:50;;;;;;;6.63;5.03;;;26.50;99.90;;;;;;5076563;28;20286;-66
2021/07/25 09:50:09;;;;;;;6.73;5.00;;;25.40;99.90;;;;;;5077551;28;20210;-66
2021/07/25 09:53:44;;;;;;;5.97;4.33;;;25.00;99.90;;;;;;5083835;28;20317;-66
2021/07/25 09:57:12;;;;;;;6.70;4.03;;;24.50;99.90;;;;;;5081372;28;20195;-65
2021/07/25 10:00:38;;;;;;;4.50;4.10;;;24.30;99.90;;;;;;5082083;28;20250;-66
2021/07/25 10:04:11;;;;;;;7.17;4.47;;;24.20;99.90;;;;;;5081421;28;20273;-65
2021/07/25 10:07:30;;;;;;;4.70;4.30;;;24.20;99.90;;;;;;5081003;28;20278;-66
2021/07/25 10:10:53;;;;;;;4.33;4.03;;;25.00;99.90;;;;;;5080651;28;20202;-66
2021/07/25 10:14:16;;;;;;;5.10;4.70;;;26.30;99.90;;;;;;5082529;28;20199;-66
2021/07/25 10:17:37;;;;;;;6.15;3.28;;;27.70;99.90;;;;;;5078772;28;20259;-66
2021/07/25 10:20:58;;;;;;;4.15;3.58;;;28.50;99.90;;;;;;5075141;28;20180;-66
2021/07/25 10:24:22;;;;;;;4.68;3.83;;;28.20;99.90;;;;;;5078790;28;20291;-66
2021/07/25 10:27:44;;;;;;;8.38;4.50;;;27.10;99.90;;;;;;5080557;28;20207;-66
2021/07/25 10:31:06;;;;;;;4.60;4.10;;;26.30;99.90;;;;;;5079684;28;20184;-66
2021/07/25 10:34:26;;;;;;;4.97;3.63;;;25.50;99.90;;;;;;5080465;28;20456;-66
2021/07/25 10:37:49;;;;;;;4.10;3.80;;;25.40;99.90;;;;;;5079668;28;20460;-66
2021/07/25 10:41:09;;;;;;;4.73;4.33;;;25.50;99.90;;;;;;5080824;28;20193;-66
2021/07/25 10:44:31;;;;;;;4.23;3.83;;;25.30;99.90;;;;;;5077252;28;20697;-66
2021/07/25 10:47:54;;;;;;;3.93;3.33;;;25.30;99.90;;;;;;5077978;28;20232;-66
2021/07/25 10:51:12;;;;;;;4.33;3.40;;;25.60;99.90;;;;;;5076267;28;20249;-66
2021/07/25 10:54:47;;;;;;;3.53;3.23;;;26.10;99.90;;;;;;5078134;28;20246;-66
2021/07/25 10:58:06;;;;;;;3.97;3.67;;;27.00;99.90;;;;;;5079290;28;20534;-66
2021/07/25 11:01:44;;;;;;;6.50;4.47;;;26.50;99.90;;;;;;5080785;28;20223;-66
2021/07/25 11:05:10;;;;;;;4.57;3.50;;;26.10;99.90;;;;;;5080808;28;20231;-66
2021/07/25 11:08:32;;;;;;;3.67;3.33;;;25.90;99.90;;;;;;5078565;28;20472;-66
2021/07/25 11:11:56;;;;;;;4.07;3.43;;;25.80;99.90;;;;;;5074747;28;20190;-66
2021/07/25 11:15:31;;;;;;;4.67;3.97;;;25.70;99.90;;;;;;5079385;28;20191;-66
2021/07/25 11:18:49;;;;;;;4.20;3.90;;;25.50;99.90;;;;;;5078416;28;20186;-66
2021/07/25 11:22:44;;;;;;;5.97;3.70;;;25.60;99.90;;;;;;5079336;28;20487;-66
2021/07/25 11:26:32;;;;;;;2.70;2.60;;;25.70;99.90;;;;;;5077421;28;20584;-66
2021/07/25 11:29:52;;;;;;;3.10;2.60;;;25.60;99.90;;;;;;5076756;28;20225;-66
2021/07/25 11:33:51;;;;;;;4.10;2.37;;;25.20;99.90;;;;;;5132930;27;20558;-65
2021/07/25 11:37:12;;;;;;;3.20;2.40;;;24.90;99.90;;;;;;5128640;27;20196;-65
2021/07/25 11:40:53;;;;;;;2.83;2.60;;;24.90;99.90;;;;;;5127896;27;20294;-65
2021/07/25 11:44:13;;;;;;;2.90;2.50;;;24.30;99.90;;;;;;5128275;28;20336;-65
2021/07/25 11:47:35;;;;;;;3.53;2.40;;;23.60;99.90;;;;;;5134120;28;20188;-65
2021/07/25 11:50:56;;;;;;;2.10;1.87;;;22.70;99.90;;;;;;5131145;28;20414;-65
2021/07/25 11:54:18;;;;;;;1.90;1.80;;;21.70;99.90;;;;;;5132756;28;20233;-65
2021/07/25 11:57:37;;;;;;;1.80;1.70;;;21.10;99.90;;;;;;5134540;27;20189;-65
2021/07/25 12:01:10;;;;;;;1.90;1.77;;;21.30;99.90;;;;;;5133381;28;20181;-65
2021/07/25 12:04:31;;;;;;;6.43;1.60;;;21.80;99.90;;;;;;5130871;28;20226;-65
2021/07/25 12:07:51;;;;;;;1.43;1.40;;;22.10;99.90;;;;;;5132509;28;20267;-65
2021/07/25 12:11:11;;;;;;;1.60;1.50;;;22.20;99.90;;;;;;5129726;28;20187;-65
2021/07/25 12:14:30;;;;;;;1.83;1.80;;;22.20;99.90;;;;;;5130529;28;20190;-65
2021/07/25 12:17:50;;;;;;;1.50;1.50;;;22.50;99.90;;;;;;5131898;28;20190;-65
2021/07/25 12:21:29;;;;;;;1.87;1.70;;;23.50;99.90;;;;;;5130623;28;20178;-65
2021/07/25 12:24:51;;;;;;;2.00;1.90;;;23.90;99.90;;;;;;5133194;28;20247;-65
2021/07/25 12:28:13;;;;;;;1.67;1.57;;;23.60;99.90;;;;;;5134062;27;20401;-65
2021/07/25 12:31:32;;;;;;;1.97;1.37;;;24.00;99.90;;;;;;5130176;28;20230;-65
2021/07/25 12:34:53;;;;;;;1.30;1.30;;;24.50;99.90;;;;;;5134698;27;20176;-65
2021/07/25 12:38:14;;;;;;;1.40;1.40;;;24.80;99.90;;;;;;5135128;28;20185;-66
2021/07/25 12:41:42;;;;;;;1.67;1.67;;;24.90;99.90;;;;;;5129881;27;20219;-65
2021/07/25 12:45:26;;;;;;;1.77;1.77;;;24.80;99.90;;;;;;5113954;28;20200;-65
2021/07/25 12:48:45;;;;;;;1.60;1.60;;;24.60;99.90;;;;;;5121898;28;20196;-65
2021/07/25 12:52:06;;;;;;;1.50;1.50;;;24.40;99.90;;;;;;5122109;28;20196;-65
2021/07/25 12:55:25;;;;;;;3.03;1.37;;;24.50;99.90;;;;;;5124755;28;20258;-65
2021/07/25 12:58:48;;;;;;;1.50;1.40;;;24.50;99.90;;;;;;5126615;27;20444;-66
2021/07/25 13:05:48;;;;;;;2.87;1.73;;;24.60;99.90;;;;;;5121805;28;20417;-65
2021/07/25 13:09:08;;;;;;;1.40;1.30;;;25.00;99.90;;;;;;5120899;28;20350;-65
2021/07/25 13:12:28;;;;;;;1.60;1.60;;;24.90;99.90;;;;;;5119987;28;20203;-65
2021/07/25 13:15:48;;;;;;;1.63;1.63;;;24.90;99.90;;;;;;5118281;28;20200;-65
2021/07/25 13:19:07;;;;;;;1.70;1.60;;;25.20;99.90;;;;;;5113127;27;20268;-65
2021/07/25 13:22:26;;;;;;;1.70;1.60;;;25.50;99.90;;;;;;5117157;28;20183;-65
2021/07/25 13:25:45;;;;;;;2.30;2.10;;;25.30;99.90;;;;;;5118997;28;20277;-65
2021/07/25 13:29:05;;;;;;;1.80;1.80;;;25.20;99.90;;;;;;5116597;27;20193;-65
2021/07/25 13:32:25;;;;;;;1.87;1.87;;;25.30;99.90;;;;;;5113096;28;20247;-65
2021/07/25 13:35:45;;;;;;;1.80;1.80;;;25.20;99.90;;;;;;5124782;28;20173;-65
2021/07/25 13:39:04;;;;;;;2.00;1.90;;;25.20;99.90;;;;;;5118181;28;20314;-65
2021/07/25 13:42:24;;;;;;;1.80;1.70;;;25.10;99.90;;;;;;5117623;28;20315;-65
2021/07/25 13:45:49;;;;;;;1.80;1.70;;;25.20;99.90;;;;;;5116294;28;20180;-65
2021/07/25 13:49:11;;;;;;;2.30;1.73;;;25.00;99.90;;;;;;5117313;28;20256;-65
2021/07/25 13:52:30;;;;;;;2.03;1.80;;;24.90;99.90;;;;;;5115227;28;20386;-65
2021/07/25 13:56:23;;;;;;;1.90;1.87;;;25.20;99.90;;;;;;5060330;27;94223;-65
2021/07/25 13:59:42;;;;;;;1.90;1.80;;;25.70;99.90;;;;;;5084005;28;20252;-65
2021/07/25 14:03:03;;;;;;;3.23;2.10;;;26.00;99.90;;;;;;5074831;28;20236;-66
2021/07/25 14:06:22;;;;;;;2.23;1.97;;;26.10;99.90;;;;;;5057240;28;20606;-68
2021/07/25 14:09:40;;;;;;;4.40;2.20;;;26.10;99.90;;;;;;5021509;28;20417;-64
2021/07/25 14:13:00;;;;;;;2.63;2.00;;;26.00;99.90;;;;;;5060196;28;21133;-64
2021/07/25 14:15:31;;;;;;;2.33;1.90;;;26.20;99.90;;;;;;5063521;28;20213;-64
2021/07/25 14:18:02;;;;;;;2.37;1.90;;;26.20;99.90;;;;;;5074534;28;20183;-65
2021/07/25 14:20:32;;;;;;;2.10;2.00;;;26.30;99.90;;;;;;5091883;28;20180;-65
2021/07/25 14:23:01;;;;;;;2.10;2.00;;;26.50;99.90;;;;;;5088288;28;20180;-65
2021/07/25 14:25:30;;;;;;;2.00;2.00;;;26.60;99.90;;;;;;5096809;28;20491;-64
2021/07/25 14:27:59;;;;;;;2.10;2.00;;;26.80;99.90;;;;;;5094655;28;20336;-64
2021/07/25 14:30:28;;;;;;;2.30;1.77;;;26.80;99.90;;;;;;5090247;28;20187;-64
2021/07/25 14:32:56;;;;;;;2.20;2.10;;;26.70;99.90;;;;;;5094939;28;20427;-64
2021/07/25 14:35:24;;;;;;;2.00;1.90;;;26.60;99.90;;;;;;5090910;28;20222;-65
2021/07/25 14:37:52;;;;;;;3.43;2.17;;;26.70;99.90;;;;;;5094203;28;20183;-64
2021/07/25 14:40:21;;;;;;;2.10;2.00;;;26.70;99.90;;;;;;5107950;28;20175;-65
2021/07/25 14:42:49;;;;;;;2.43;2.27;;;26.90;99.90;;;;;;5092947;28;20187;-64
2021/07/25 14:45:19;;;;;;;1.90;1.90;;;26.70;99.90;;;;;;5095277;28;20186;-64
2021/07/25 14:47:47;;;;;;;2.40;2.10;;;26.30;99.90;;;;;;5091250;28;20202;-64
2021/07/25 14:50:16;;;;;;;3.47;2.17;;;26.50;99.90;;;;;;5096003;28;20199;-65
2021/07/25 14:52:44;;;;;;;2.07;1.97;;;26.80;99.90;;;;;;5093083;28;20188;-64
2021/07/25 14:55:13;;;;;;;2.10;2.00;;;26.50;99.90;;;;;;5095245;28;20468;-64
2021/07/25 14:57:42;;;;;;;3.23;2.00;;;26.30;99.90;;;;;;5094209;28;20191;-64
2021/07/25 15:00:11;;;;;;;2.40;2.00;;;26.00;99.90;;;;;;5093128;28;20180;-64
2021/07/25 15:02:41;;;;;;;2.00;2.00;;;26.00;99.90;;;;;;5093860;28;20190;-64
2021/07/25 15:05:10;;;;;;;1.90;1.90;;;26.20;99.90;;;;;;5091719;28;20358;-64
2021/07/25 15:07:38;;;;;;;1.80;1.70;;;26.60;99.90;;;;;;5080770;28;20318;-64
2021/07/25 15:10:07;;;;;;;1.80;1.80;;;26.90;99.90;;;;;;5081721;28;20188;-65
2021/07/25 15:12:36;;;;;;;2.00;1.90;;;27.00;99.90;;;;;;5082350;28;20196;-64
2021/07/25 15:15:05;;;;;;;2.00;1.90;;;27.20;99.90;;;;;;5076389;28;20227;-64
2021/07/25 15:17:33;;;;;;;2.10;2.00;;;27.40;99.90;;;;;;5077372;28;20180;-65
2021/07/25 15:20:04;;;;;;;2.20;2.10;;;27.70;99.90;;;;;;5081233;28;20187;-64
2021/07/25 15:22:32;;;;;;;2.37;2.23;;;27.80;99.90;;;;;;5082205;28;20199;-64
2021/07/25 15:25:00;;;;;;;2.33;2.20;;;27.90;99.90;;;;;;5079577;28;20177;-64
2021/07/25 15:27:29;;;;;;;2.13;2.03;;;27.50;99.90;;;;;;5076956;28;20339;-65
2021/07/25 15:29:57;;;;;;;3.70;2.00;;;27.50;99.90;;;;;;5077132;28;20188;-65